Stronghurst, Illinois
Current Conditions -  °F | °C
As of 8:53 PM on Monday 26 Jan 2015 (Local Time) from KBRL Reporting Station
Overcast Overcast  
Wind Chill: 36°   Ceiling: 5500
Heat Index: 41°   Visibility: 10mi
Dew Point: 36°   Wind: 8mph
Humidity: 82%   Direction: 330°NNW
Pressure: 29.88"   Gusts: NA
Location:  40.75°N, 90.9°W
Report Text: KBRL 270253Z AUTO 33007KT 10SM OVC055 05/02 A2988 RMK AO2 SLP124 T00500022 51010
Loading
Personal Weather Stations






























Interactive Weather Map New forecast layout! Learn more

10-Day Weather Forecast

Advertisements
Track Severe Weather on mobile